sensor_id;sensor_type;location;lat;lon;timestamp;P1;durP1;ratioP1;P2;durP2;ratioP2
24715;SDS011;12822;50.124;8.678;2023-02-10T00:01:39;73.75;;;33.50;;
24715;SDS011;12822;50.124;8.678;2023-02-10T00:04:05;74.53;;;34.25;;
24715;SDS011;12822;50.124;8.678;2023-02-10T00:06:32;74.07;;;33.15;;
24715;SDS011;12822;50.124;8.678;2023-02-10T00:08:59;75.85;;;34.20;;
24715;SDS011;12822;50.124;8.678;2023-02-10T00:11:25;79.80;;;34.58;;
24715;SDS011;12822;50.124;8.678;2023-02-10T00:14:11;74.32;;;33.08;;
24715;SDS011;12822;50.124;8.678;2023-02-10T00:16:37;72.38;;;32.85;;
24715;SDS011;12822;50.124;8.678;2023-02-10T00:19:03;73.82;;;33.17;;
24715;SDS011;12822;50.124;8.678;2023-02-10T00:21:29;78.25;;;34.90;;
24715;SDS011;12822;50.124;8.678;2023-02-10T00:23:55;73.97;;;33.42;;
24715;SDS011;12822;50.124;8.678;2023-02-10T00:26:21;67.47;;;33.58;;
24715;SDS011;12822;50.124;8.678;2023-02-10T00:28:47;73.38;;;33.08;;
24715;SDS011;12822;50.124;8.678;2023-02-10T00:31:14;72.75;;;34.40;;
24715;SDS011;12822;50.124;8.678;2023-02-10T00:33:43;86.25;;;36.50;;
24715;SDS011;12822;50.124;8.678;2023-02-10T00:36:10;71.10;;;33.72;;
24715;SDS011;12822;50.124;8.678;2023-02-10T00:38:37;74.57;;;34.58;;
24715;SDS011;12822;50.124;8.678;2023-02-10T00:41:04;76.60;;;35.05;;
24715;SDS011;12822;50.124;8.678;2023-02-10T00:43:30;80.03;;;36.85;;
24715;SDS011;12822;50.124;8.678;2023-02-10T00:45:56;70.43;;;32.95;;
24715;SDS011;12822;50.124;8.678;2023-02-10T00:48:22;86.65;;;36.33;;
24715;SDS011;12822;50.124;8.678;2023-02-10T00:50:48;77.55;;;35.17;;
24715;SDS011;12822;50.124;8.678;2023-02-10T00:53:14;76.88;;;36.40;;
24715;SDS011;12822;50.124;8.678;2023-02-10T00:55:40;79.75;;;37.25;;
24715;SDS011;12822;50.124;8.678;2023-02-10T00:58:06;83.40;;;36.72;;
24715;SDS011;12822;50.124;8.678;2023-02-10T01:00:32;78.32;;;35.47;;
24715;SDS011;12822;50.124;8.678;2023-02-10T01:02:58;75.95;;;35.13;;
24715;SDS011;12822;50.124;8.678;2023-02-10T01:05:24;81.68;;;35.20;;
24715;SDS011;12822;50.124;8.678;2023-02-10T01:07:50;79.78;;;36.13;;
24715;SDS011;12822;50.124;8.678;2023-02-10T01:10:18;81.63;;;34.20;;
24715;SDS011;12822;50.124;8.678;2023-02-10T01:12:44;76.85;;;34.83;;
24715;SDS011;12822;50.124;8.678;2023-02-10T01:15:10;72.20;;;35.70;;
24715;SDS011;12822;50.124;8.678;2023-02-10T01:17:36;75.15;;;33.25;;
24715;SDS011;12822;50.124;8.678;2023-02-10T01:20:03;75.38;;;34.15;;
24715;SDS011;12822;50.124;8.678;2023-02-10T01:22:31;82.72;;;35.58;;
24715;SDS011;12822;50.124;8.678;2023-02-10T01:24:57;78.00;;;33.75;;
24715;SDS011;12822;50.124;8.678;2023-02-10T01:27:23;78.57;;;34.85;;
24715;SDS011;12822;50.124;8.678;2023-02-10T01:29:49;79.03;;;36.38;;
24715;SDS011;12822;50.124;8.678;2023-02-10T01:32:15;83.10;;;36.05;;
24715;SDS011;12822;50.124;8.678;2023-02-10T01:34:41;76.97;;;35.63;;
24715;SDS011;12822;50.124;8.678;2023-02-10T01:37:07;82.45;;;35.97;;
24715;SDS011;12822;50.124;8.678;2023-02-10T01:39:33;81.20;;;37.03;;
24715;SDS011;12822;50.124;8.678;2023-02-10T01:41:59;80.00;;;35.72;;
24715;SDS011;12822;50.124;8.678;2023-02-10T01:46:51;76.88;;;35.42;;
24715;SDS011;12822;50.124;8.678;2023-02-10T01:49:18;83.10;;;36.25;;
24715;SDS011;12822;50.124;8.678;2023-02-10T01:51:56;84.50;;;35.80;;
24715;SDS011;12822;50.124;8.678;2023-02-10T01:54:27;77.22;;;35.22;;
24715;SDS011;12822;50.124;8.678;2023-02-10T01:56:55;76.82;;;34.80;;
24715;SDS011;12822;50.124;8.678;2023-02-10T01:59:21;82.70;;;36.67;;
24715;SDS011;12822;50.124;8.678;2023-02-10T02:01:48;81.80;;;34.65;;
24715;SDS011;12822;50.124;8.678;2023-02-10T02:04:14;80.28;;;35.95;;
24715;SDS011;12822;50.124;8.678;2023-02-10T02:06:40;75.72;;;33.63;;
24715;SDS011;12822;50.124;8.678;2023-02-10T02:09:07;77.68;;;34.95;;
24715;SDS011;12822;50.124;8.678;2023-02-10T02:17:12;74.93;;;33.45;;
24715;SDS011;12822;50.124;8.678;2023-02-10T02:31:29;67.93;;;30.85;;
24715;SDS011;12822;50.124;8.678;2023-02-10T02:33:57;68.88;;;31.52;;
24715;SDS011;12822;50.124;8.678;2023-02-10T02:36:27;72.70;;;31.70;;
24715;SDS011;12822;50.124;8.678;2023-02-10T02:38:58;68.13;;;32.53;;
24715;SDS011;12822;50.124;8.678;2023-02-10T02:41:24;67.18;;;30.92;;
24715;SDS011;12822;50.124;8.678;2023-02-10T02:43:50;66.85;;;33.00;;
24715;SDS011;12822;50.124;8.678;2023-02-10T02:49:08;72.85;;;31.73;;
24715;SDS011;12822;50.124;8.678;2023-02-10T02:51:42;65.68;;;32.13;;
24715;SDS011;12822;50.124;8.678;2023-02-10T03:01:54;73.22;;;32.20;;
24715;SDS011;12822;50.124;8.678;2023-02-10T03:04:21;70.38;;;33.70;;
24715;SDS011;12822;50.124;8.678;2023-02-10T03:06:47;70.55;;;31.30;;
24715;SDS011;12822;50.124;8.678;2023-02-10T03:09:13;76.97;;;31.17;;
24715;SDS011;12822;50.124;8.678;2023-02-10T03:11:40;64.68;;;30.20;;
24715;SDS011;12822;50.124;8.678;2023-02-10T03:14:06;67.15;;;32.13;;
24715;SDS011;12822;50.124;8.678;2023-02-10T03:16:32;70.72;;;30.52;;
24715;SDS011;12822;50.124;8.678;2023-02-10T03:18:58;72.00;;;31.63;;
24715;SDS011;12822;50.124;8.678;2023-02-10T03:21:24;68.43;;;30.98;;
24715;SDS011;12822;50.124;8.678;2023-02-10T03:23:50;65.82;;;32.00;;
24715;SDS011;12822;50.124;8.678;2023-02-10T03:26:16;66.75;;;29.75;;
24715;SDS011;12822;50.124;8.678;2023-02-10T03:28:42;59.53;;;29.38;;
24715;SDS011;12822;50.124;8.678;2023-02-10T03:31:08;69.28;;;30.25;;
24715;SDS011;12822;50.124;8.678;2023-02-10T03:33:34;66.97;;;30.10;;
24715;SDS011;12822;50.124;8.678;2023-02-10T03:36:00;60.20;;;29.35;;
24715;SDS011;12822;50.124;8.678;2023-02-10T03:38:27;69.07;;;30.20;;
24715;SDS011;12822;50.124;8.678;2023-02-10T03:40:53;64.32;;;29.90;;
24715;SDS011;12822;50.124;8.678;2023-02-10T03:43:20;67.25;;;28.92;;
24715;SDS011;12822;50.124;8.678;2023-02-10T03:45:46;65.60;;;30.17;;
24715;SDS011;12822;50.124;8.678;2023-02-10T03:48:12;67.13;;;31.05;;
24715;SDS011;12822;50.124;8.678;2023-02-10T03:50:40;74.55;;;31.25;;
24715;SDS011;12822;50.124;8.678;2023-02-10T03:53:06;67.78;;;32.72;;
24715;SDS011;12822;50.124;8.678;2023-02-10T03:55:33;63.65;;;29.95;;
24715;SDS011;12822;50.124;8.678;2023-02-10T03:57:59;69.97;;;31.40;;
24715;SDS011;12822;50.124;8.678;2023-02-10T04:00:26;62.72;;;29.80;;
24715;SDS011;12822;50.124;8.678;2023-02-10T04:02:52;66.53;;;29.70;;
24715;SDS011;12822;50.124;8.678;2023-02-10T04:05:18;66.40;;;29.90;;
24715;SDS011;12822;50.124;8.678;2023-02-10T04:07:44;62.15;;;29.85;;
24715;SDS011;12822;50.124;8.678;2023-02-10T04:10:10;59.50;;;27.75;;
24715;SDS011;12822;50.124;8.678;2023-02-10T04:12:36;64.95;;;29.88;;
24715;SDS011;12822;50.124;8.678;2023-02-10T04:15:03;63.65;;;29.67;;
24715;SDS011;12822;50.124;8.678;2023-02-10T04:17:29;63.75;;;29.60;;
24715;SDS011;12822;50.124;8.678;2023-02-10T04:19:55;63.78;;;30.10;;
24715;SDS011;12822;50.124;8.678;2023-02-10T04:22:21;64.60;;;30.25;;
24715;SDS011;12822;50.124;8.678;2023-02-10T04:24:47;70.95;;;30.70;;
24715;SDS011;12822;50.124;8.678;2023-02-10T04:27:13;61.90;;;30.27;;
24715;SDS011;12822;50.124;8.678;2023-02-10T04:29:39;62.35;;;29.58;;
24715;SDS011;12822;50.124;8.678;2023-02-10T04:32:06;58.55;;;30.02;;
24715;SDS011;12822;50.124;8.678;2023-02-10T04:34:32;62.75;;;29.65;;
24715;SDS011;12822;50.124;8.678;2023-02-10T04:36:58;60.95;;;30.42;;
24715;SDS011;12822;50.124;8.678;2023-02-10T04:39:24;57.55;;;27.35;;
24715;SDS011;12822;50.124;8.678;2023-02-10T04:41:50;62.30;;;29.60;;
24715;SDS011;12822;50.124;8.678;2023-02-10T04:44:16;67.78;;;29.55;;
24715;SDS011;12822;50.124;8.678;2023-02-10T04:46:42;63.15;;;30.13;;
24715;SDS011;12822;50.124;8.678;2023-02-10T04:49:08;62.22;;;28.58;;
24715;SDS011;12822;50.124;8.678;2023-02-10T04:51:34;56.67;;;28.38;;
24715;SDS011;12822;50.124;8.678;2023-02-10T04:54:00;57.00;;;27.65;;
24715;SDS011;12822;50.124;8.678;2023-02-10T04:56:26;68.15;;;28.48;;
24715;SDS011;12822;50.124;8.678;2023-02-10T04:58:52;59.20;;;27.80;;
24715;SDS011;12822;50.124;8.678;2023-02-10T05:01:21;60.72;;;28.35;;
24715;SDS011;12822;50.124;8.678;2023-02-10T05:03:47;63.92;;;30.98;;
24715;SDS011;12822;50.124;8.678;2023-02-10T05:06:14;60.67;;;27.65;;
24715;SDS011;12822;50.124;8.678;2023-02-10T05:08:41;61.97;;;28.38;;
24715;SDS011;12822;50.124;8.678;2023-02-10T05:11:11;57.47;;;27.85;;
24715;SDS011;12822;50.124;8.678;2023-02-10T05:13:37;56.78;;;27.13;;
24715;SDS011;12822;50.124;8.678;2023-02-10T05:16:04;58.97;;;28.27;;
24715;SDS011;12822;50.124;8.678;2023-02-10T05:18:31;62.50;;;29.20;;
24715;SDS011;12822;50.124;8.678;2023-02-10T05:20:57;63.72;;;28.85;;
24715;SDS011;12822;50.124;8.678;2023-02-10T05:23:23;65.97;;;30.98;;
24715;SDS011;12822;50.124;8.678;2023-02-10T05:25:50;65.50;;;29.30;;
24715;SDS011;12822;50.124;8.678;2023-02-10T05:28:15;62.42;;;29.70;;
24715;SDS011;12822;50.124;8.678;2023-02-10T05:30:42;58.60;;;29.13;;
24715;SDS011;12822;50.124;8.678;2023-02-10T05:33:08;61.80;;;28.45;;
24715;SDS011;12822;50.124;8.678;2023-02-10T05:35:33;60.38;;;28.30;;
24715;SDS011;12822;50.124;8.678;2023-02-10T05:37:59;63.00;;;28.20;;
24715;SDS011;12822;50.124;8.678;2023-02-10T05:40:29;64.97;;;30.80;;
24715;SDS011;12822;50.124;8.678;2023-02-10T05:42:55;63.28;;;28.40;;
24715;SDS011;12822;50.124;8.678;2023-02-10T05:45:21;61.30;;;28.08;;
24715;SDS011;12822;50.124;8.678;2023-02-10T05:47:47;66.90;;;29.98;;
24715;SDS011;12822;50.124;8.678;2023-02-10T05:50:14;61.78;;;30.40;;
24715;SDS011;12822;50.124;8.678;2023-02-10T05:52:40;62.35;;;30.00;;
24715;SDS011;12822;50.124;8.678;2023-02-10T05:55:06;61.38;;;30.38;;
24715;SDS011;12822;50.124;8.678;2023-02-10T05:57:32;62.55;;;29.48;;
24715;SDS011;12822;50.124;8.678;2023-02-10T05:59:58;61.63;;;29.55;;
24715;SDS011;12822;50.124;8.678;2023-02-10T06:02:24;74.50;;;32.40;;
24715;SDS011;12822;50.124;8.678;2023-02-10T06:04:50;65.70;;;31.63;;
24715;SDS011;12822;50.124;8.678;2023-02-10T06:07:16;66.95;;;31.17;;
24715;SDS011;12822;50.124;8.678;2023-02-10T06:09:43;71.32;;;31.65;;
24715;SDS011;12822;50.124;8.678;2023-02-10T06:12:09;64.82;;;31.25;;
24715;SDS011;12822;50.124;8.678;2023-02-10T06:14:35;70.53;;;32.05;;
24715;SDS011;12822;50.124;8.678;2023-02-10T06:17:03;71.60;;;30.67;;
24715;SDS011;12822;50.124;8.678;2023-02-10T06:19:33;58.85;;;29.58;;
24715;SDS011;12822;50.124;8.678;2023-02-10T06:21:59;65.28;;;30.05;;
24715;SDS011;12822;50.124;8.678;2023-02-10T06:24:25;65.03;;;30.85;;
24715;SDS011;12822;50.124;8.678;2023-02-10T06:26:51;62.28;;;29.33;;
24715;SDS011;12822;50.124;8.678;2023-02-10T06:29:17;67.28;;;30.75;;
24715;SDS011;12822;50.124;8.678;2023-02-10T06:31:43;68.57;;;30.65;;
24715;SDS011;12822;50.124;8.678;2023-02-10T06:34:11;67.85;;;31.75;;
24715;SDS011;12822;50.124;8.678;2023-02-10T06:36:37;67.35;;;30.10;;
24715;SDS011;12822;50.124;8.678;2023-02-10T06:39:03;67.68;;;30.92;;
24715;SDS011;12822;50.124;8.678;2023-02-10T06:41:29;61.90;;;29.90;;
24715;SDS011;12822;50.124;8.678;2023-02-10T06:43:55;64.35;;;29.98;;
24715;SDS011;12822;50.124;8.678;2023-02-10T06:46:21;62.00;;;29.63;;
24715;SDS011;12822;50.124;8.678;2023-02-10T06:48:47;56.90;;;28.25;;
24715;SDS011;12822;50.124;8.678;2023-02-10T06:51:16;68.38;;;30.23;;
24715;SDS011;12822;50.124;8.678;2023-02-10T06:53:42;63.40;;;29.48;;
24715;SDS011;12822;50.124;8.678;2023-02-10T06:56:08;70.60;;;29.60;;
24715;SDS011;12822;50.124;8.678;2023-02-10T06:58:37;71.43;;;30.85;;
24715;SDS011;12822;50.124;8.678;2023-02-10T07:01:07;62.58;;;29.58;;
24715;SDS011;12822;50.124;8.678;2023-02-10T07:03:34;62.47;;;29.60;;
24715;SDS011;12822;50.124;8.678;2023-02-10T07:06:00;67.13;;;30.70;;
24715;SDS011;12822;50.124;8.678;2023-02-10T07:08:25;58.90;;;29.35;;
24715;SDS011;12822;50.124;8.678;2023-02-10T07:10:51;64.57;;;31.40;;
24715;SDS011;12822;50.124;8.678;2023-02-10T07:13:17;64.95;;;29.98;;
24715;SDS011;12822;50.124;8.678;2023-02-10T07:15:43;62.88;;;30.65;;
24715;SDS011;12822;50.124;8.678;2023-02-10T07:18:09;70.13;;;29.67;;
24715;SDS011;12822;50.124;8.678;2023-02-10T07:20:35;66.75;;;30.67;;
24715;SDS011;12822;50.124;8.678;2023-02-10T07:23:01;65.70;;;31.85;;
24715;SDS011;12822;50.124;8.678;2023-02-10T07:25:27;67.68;;;30.05;;
24715;SDS011;12822;50.124;8.678;2023-02-10T07:27:53;62.55;;;30.00;;
24715;SDS011;12822;50.124;8.678;2023-02-10T07:30:19;67.40;;;31.20;;
24715;SDS011;12822;50.124;8.678;2023-02-10T07:32:45;71.95;;;32.38;;
24715;SDS011;12822;50.124;8.678;2023-02-10T07:35:11;64.47;;;31.10;;
24715;SDS011;12822;50.124;8.678;2023-02-10T07:37:38;70.10;;;31.70;;
24715;SDS011;12822;50.124;8.678;2023-02-10T07:40:04;65.63;;;30.58;;
24715;SDS011;12822;50.124;8.678;2023-02-10T07:42:30;67.75;;;30.45;;
24715;SDS011;12822;50.124;8.678;2023-02-10T07:44:59;62.13;;;30.00;;
24715;SDS011;12822;50.124;8.678;2023-02-10T07:47:26;65.78;;;30.85;;
24715;SDS011;12822;50.124;8.678;2023-02-10T07:49:52;62.80;;;30.50;;
24715;SDS011;12822;50.124;8.678;2023-02-10T07:52:19;61.58;;;28.95;;
24715;SDS011;12822;50.124;8.678;2023-02-10T07:54:45;59.92;;;28.27;;
24715;SDS011;12822;50.124;8.678;2023-02-10T07:57:11;58.10;;;28.75;;
24715;SDS011;12822;50.124;8.678;2023-02-10T07:59:37;57.75;;;27.58;;
24715;SDS011;12822;50.124;8.678;2023-02-10T08:02:04;61.50;;;28.80;;
24715;SDS011;12822;50.124;8.678;2023-02-10T08:04:30;57.92;;;27.38;;
24715;SDS011;12822;50.124;8.678;2023-02-10T08:06:57;61.97;;;29.60;;
24715;SDS011;12822;50.124;8.678;2023-02-10T08:09:22;52.90;;;28.38;;
24715;SDS011;12822;50.124;8.678;2023-02-10T08:11:48;60.55;;;29.23;;
24715;SDS011;12822;50.124;8.678;2023-02-10T08:14:16;61.17;;;28.88;;
24715;SDS011;12822;50.124;8.678;2023-02-10T08:16:42;60.97;;;29.48;;
24715;SDS011;12822;50.124;8.678;2023-02-10T08:19:08;55.47;;;30.05;;
24715;SDS011;12822;50.124;8.678;2023-02-10T08:21:34;56.58;;;28.65;;
24715;SDS011;12822;50.124;8.678;2023-02-10T08:24:00;62.70;;;29.67;;
24715;SDS011;12822;50.124;8.678;2023-02-10T08:26:26;57.03;;;28.80;;
24715;SDS011;12822;50.124;8.678;2023-02-10T08:28:52;62.28;;;28.02;;
24715;SDS011;12822;50.124;8.678;2023-02-10T08:31:19;57.55;;;29.50;;
24715;SDS011;12822;50.124;8.678;2023-02-10T08:33:46;56.88;;;29.63;;
24715;SDS011;12822;50.124;8.678;2023-02-10T08:36:13;65.05;;;30.42;;
24715;SDS011;12822;50.124;8.678;2023-02-10T08:38:39;64.97;;;30.33;;
24715;SDS011;12822;50.124;8.678;2023-02-10T08:41:05;68.22;;;31.13;;
24715;SDS011;12822;50.124;8.678;2023-02-10T08:43:31;62.90;;;30.27;;
24715;SDS011;12822;50.124;8.678;2023-02-10T08:45:58;59.63;;;30.08;;
24715;SDS011;12822;50.124;8.678;2023-02-10T08:48:25;62.15;;;30.75;;
24715;SDS011;12822;50.124;8.678;2023-02-10T08:50:51;59.38;;;28.17;;
24715;SDS011;12822;50.124;8.678;2023-02-10T08:53:18;63.15;;;30.38;;
24715;SDS011;12822;50.124;8.678;2023-02-10T08:55:44;63.75;;;29.58;;
24715;SDS011;12822;50.124;8.678;2023-02-10T08:58:10;71.78;;;30.67;;
24715;SDS011;12822;50.124;8.678;2023-02-10T09:00:36;56.20;;;27.42;;
24715;SDS011;12822;50.124;8.678;2023-02-10T09:03:02;59.83;;;29.95;;
24715;SDS011;12822;50.124;8.678;2023-02-10T09:05:28;55.40;;;28.77;;
24715;SDS011;12822;50.124;8.678;2023-02-10T09:07:54;59.92;;;29.85;;
24715;SDS011;12822;50.124;8.678;2023-02-10T09:10:20;66.82;;;30.83;;
24715;SDS011;12822;50.124;8.678;2023-02-10T09:12:46;59.05;;;30.40;;
24715;SDS011;12822;50.124;8.678;2023-02-10T09:15:13;60.20;;;29.50;;
24715;SDS011;12822;50.124;8.678;2023-02-10T09:17:39;63.17;;;30.27;;
24715;SDS011;12822;50.124;8.678;2023-02-10T09:20:05;60.47;;;30.17;;
24715;SDS011;12822;50.124;8.678;2023-02-10T09:22:31;62.78;;;29.83;;
24715;SDS011;12822;50.124;8.678;2023-02-10T09:24:57;56.47;;;30.70;;
24715;SDS011;12822;50.124;8.678;2023-02-10T09:27:24;60.88;;;31.20;;
24715;SDS011;12822;50.124;8.678;2023-02-10T09:29:50;58.55;;;29.75;;
24715;SDS011;12822;50.124;8.678;2023-02-10T09:32:16;58.28;;;30.20;;
24715;SDS011;12822;50.124;8.678;2023-02-10T09:34:42;66.43;;;30.02;;
24715;SDS011;12822;50.124;8.678;2023-02-10T09:37:10;59.13;;;29.20;;
24715;SDS011;12822;50.124;8.678;2023-02-10T09:39:36;57.28;;;29.08;;
24715;SDS011;12822;50.124;8.678;2023-02-10T09:44:33;62.22;;;28.13;;
24715;SDS011;12822;50.124;8.678;2023-02-10T09:49:43;55.70;;;28.55;;
24715;SDS011;12822;50.124;8.678;2023-02-10T09:54:40;57.20;;;30.08;;
24715;SDS011;12822;50.124;8.678;2023-02-10T09:57:14;59.10;;;29.05;;
24715;SDS011;12822;50.124;8.678;2023-02-10T09:59:42;54.40;;;28.60;;
24715;SDS011;12822;50.124;8.678;2023-02-10T10:02:13;64.93;;;28.85;;
24715;SDS011;12822;50.124;8.678;2023-02-10T10:04:42;61.35;;;28.95;;
24715;SDS011;12822;50.124;8.678;2023-02-10T10:12:24;57.75;;;28.50;;
24715;SDS011;12822;50.124;8.678;2023-02-10T10:14:50;52.85;;;27.65;;
24715;SDS011;12822;50.124;8.678;2023-02-10T10:24:58;59.05;;;29.85;;
24715;SDS011;12822;50.124;8.678;2023-02-10T10:30:17;57.88;;;28.92;;
24715;SDS011;12822;50.124;8.678;2023-02-10T10:32:45;57.55;;;28.70;;
24715;SDS011;12822;50.124;8.678;2023-02-10T10:35:20;56.22;;;29.52;;
24715;SDS011;12822;50.124;8.678;2023-02-10T10:37:47;59.33;;;29.45;;
24715;SDS011;12822;50.124;8.678;2023-02-10T10:40:17;58.78;;;28.70;;
24715;SDS011;12822;50.124;8.678;2023-02-10T10:42:52;60.13;;;30.23;;
24715;SDS011;12822;50.124;8.678;2023-02-10T10:45:29;53.83;;;29.77;;
24715;SDS011;12822;50.124;8.678;2023-02-10T10:48:07;62.22;;;29.08;;
24715;SDS011;12822;50.124;8.678;2023-02-10T10:50:34;55.53;;;28.73;;
24715;SDS011;12822;50.124;8.678;2023-02-10T10:53:01;60.08;;;28.90;;
24715;SDS011;12822;50.124;8.678;2023-02-10T10:55:35;56.63;;;28.42;;
24715;SDS011;12822;50.124;8.678;2023-02-10T10:58:01;51.63;;;28.17;;
24715;SDS011;12822;50.124;8.678;2023-02-10T11:00:29;64.50;;;28.92;;
24715;SDS011;12822;50.124;8.678;2023-02-10T11:02:57;54.72;;;29.67;;
24715;SDS011;12822;50.124;8.678;2023-02-10T11:05:25;54.17;;;26.98;;
24715;SDS011;12822;50.124;8.678;2023-02-10T11:07:52;61.75;;;28.20;;
24715;SDS011;12822;50.124;8.678;2023-02-10T11:12:57;56.90;;;28.45;;
24715;SDS011;12822;50.124;8.678;2023-02-10T11:15:30;58.85;;;29.00;;
24715;SDS011;12822;50.124;8.678;2023-02-10T11:17:56;56.78;;;28.45;;
24715;SDS011;12822;50.124;8.678;2023-02-10T11:20:25;55.92;;;30.08;;
24715;SDS011;12822;50.124;8.678;2023-02-10T11:23:11;57.95;;;28.90;;
24715;SDS011;12822;50.124;8.678;2023-02-10T11:25:37;53.53;;;28.75;;
24715;SDS011;12822;50.124;8.678;2023-02-10T11:28:05;56.90;;;28.35;;
24715;SDS011;12822;50.124;8.678;2023-02-10T11:30:38;62.53;;;31.00;;
24715;SDS011;12822;50.124;8.678;2023-02-10T11:33:05;62.30;;;30.83;;
24715;SDS011;12822;50.124;8.678;2023-02-10T11:35:32;61.45;;;32.35;;
24715;SDS011;12822;50.124;8.678;2023-02-10T11:38:00;61.55;;;31.65;;
24715;SDS011;12822;50.124;8.678;2023-02-10T11:40:28;64.00;;;32.58;;
24715;SDS011;12822;50.124;8.678;2023-02-10T11:42:56;62.75;;;32.55;;
24715;SDS011;12822;50.124;8.678;2023-02-10T11:45:24;58.63;;;32.00;;
24715;SDS011;12822;50.124;8.678;2023-02-10T11:48:13;57.65;;;32.90;;
24715;SDS011;12822;50.124;8.678;2023-02-10T11:50:39;65.55;;;32.42;;
24715;SDS011;12822;50.124;8.678;2023-02-10T11:53:07;66.35;;;32.53;;
24715;SDS011;12822;50.124;8.678;2023-02-10T11:55:41;65.88;;;32.55;;
24715;SDS011;12822;50.124;8.678;2023-02-10T12:01:17;65.13;;;32.78;;
24715;SDS011;12822;50.124;8.678;2023-02-10T12:06:25;57.90;;;31.63;;
24715;SDS011;12822;50.124;8.678;2023-02-10T12:22:21;57.53;;;30.92;;
24715;SDS011;12822;50.124;8.678;2023-02-10T12:27:44;55.60;;;29.80;;
24715;SDS011;12822;50.124;8.678;2023-02-10T12:33:25;52.38;;;29.15;;
24715;SDS011;12822;50.124;8.678;2023-02-10T12:35:36;54.33;;;29.95;;
24715;SDS011;12822;50.124;8.678;2023-02-10T12:38:21;60.53;;;30.30;;
24715;SDS011;12822;50.124;8.678;2023-02-10T12:43:23;59.22;;;31.83;;
24715;SDS011;12822;50.124;8.678;2023-02-10T12:51:15;60.58;;;30.77;;
24715;SDS011;12822;50.124;8.678;2023-02-10T12:53:45;61.92;;;32.78;;
24715;SDS011;12822;50.124;8.678;2023-02-10T12:56:20;56.47;;;32.03;;
24715;SDS011;12822;50.124;8.678;2023-02-10T12:58:50;54.30;;;29.83;;
24715;SDS011;12822;50.124;8.678;2023-02-10T13:01:30;58.65;;;30.88;;
24715;SDS011;12822;50.124;8.678;2023-02-10T13:04:08;58.05;;;31.50;;
24715;SDS011;12822;50.124;8.678;2023-02-10T13:06:41;57.50;;;31.08;;
24715;SDS011;12822;50.124;8.678;2023-02-10T13:09:13;52.05;;;29.77;;
24715;SDS011;12822;50.124;8.678;2023-02-10T13:11:42;57.35;;;29.83;;
24715;SDS011;12822;50.124;8.678;2023-02-10T13:14:12;52.92;;;29.58;;
24715;SDS011;12822;50.124;8.678;2023-02-10T13:16:39;55.45;;;29.83;;
24715;SDS011;12822;50.124;8.678;2023-02-10T13:19:27;51.03;;;28.10;;
24715;SDS011;12822;50.124;8.678;2023-02-10T13:24:24;46.25;;;27.05;;
24715;SDS011;12822;50.124;8.678;2023-02-10T13:27:13;45.50;;;26.08;;
24715;SDS011;12822;50.124;8.678;2023-02-10T13:29:50;41.72;;;24.50;;
24715;SDS011;12822;50.124;8.678;2023-02-10T13:32:28;49.08;;;26.42;;
24715;SDS011;12822;50.124;8.678;2023-02-10T13:34:57;43.35;;;25.90;;
24715;SDS011;12822;50.124;8.678;2023-02-10T13:37:33;43.67;;;25.33;;
24715;SDS011;12822;50.124;8.678;2023-02-10T13:40:02;44.30;;;25.92;;
24715;SDS011;12822;50.124;8.678;2023-02-10T13:42:29;37.60;;;23.52;;
24715;SDS011;12822;50.124;8.678;2023-02-10T13:47:39;41.97;;;25.92;;
24715;SDS011;12822;50.124;8.678;2023-02-10T13:52:33;40.20;;;25.42;;
24715;SDS011;12822;50.124;8.678;2023-02-10T13:57:35;42.25;;;26.52;;
24715;SDS011;12822;50.124;8.678;2023-02-10T14:02:37;44.40;;;24.48;;
24715;SDS011;12822;50.124;8.678;2023-02-10T14:05:19;40.78;;;24.58;;
24715;SDS011;12822;50.124;8.678;2023-02-10T14:07:46;39.53;;;24.15;;
24715;SDS011;12822;50.124;8.678;2023-02-10T14:13:01;42.80;;;25.85;;
24715;SDS011;12822;50.124;8.678;2023-02-10T14:15:31;41.50;;;24.95;;
24715;SDS011;12822;50.124;8.678;2023-02-10T14:18:02;46.15;;;26.70;;
24715;SDS011;12822;50.124;8.678;2023-02-10T14:20:31;42.85;;;26.10;;
24715;SDS011;12822;50.124;8.678;2023-02-10T14:22:57;46.03;;;25.90;;
24715;SDS011;12822;50.124;8.678;2023-02-10T14:27:50;48.05;;;26.92;;
24715;SDS011;12822;50.124;8.678;2023-02-10T14:30:21;52.50;;;28.48;;
24715;SDS011;12822;50.124;8.678;2023-02-10T14:32:48;51.95;;;28.48;;
24715;SDS011;12822;50.124;8.678;2023-02-10T14:35:16;52.70;;;28.40;;
24715;SDS011;12822;50.124;8.678;2023-02-10T14:38:02;51.65;;;28.80;;
24715;SDS011;12822;50.124;8.678;2023-02-10T14:40:29;53.13;;;29.05;;
24715;SDS011;12822;50.124;8.678;2023-02-10T14:42:57;55.05;;;28.52;;
24715;SDS011;12822;50.124;8.678;2023-02-10T14:45:25;56.80;;;29.02;;
24715;SDS011;12822;50.124;8.678;2023-02-10T14:47:52;60.63;;;28.65;;
24715;SDS011;12822;50.124;8.678;2023-02-10T14:50:30;57.40;;;29.60;;
24715;SDS011;12822;50.124;8.678;2023-02-10T14:52:56;52.00;;;29.08;;
24715;SDS011;12822;50.124;8.678;2023-02-10T14:55:27;49.75;;;28.42;;
24715;SDS011;12822;50.124;8.678;2023-02-10T14:57:57;54.40;;;29.70;;
24715;SDS011;12822;50.124;8.678;2023-02-10T15:00:23;53.78;;;29.83;;
24715;SDS011;12822;50.124;8.678;2023-02-10T15:02:58;57.22;;;29.60;;
24715;SDS011;12822;50.124;8.678;2023-02-10T15:05:24;53.00;;;28.13;;
24715;SDS011;12822;50.124;8.678;2023-02-10T15:07:52;55.30;;;28.60;;
24715;SDS011;12822;50.124;8.678;2023-02-10T15:12:46;50.25;;;27.80;;
24715;SDS011;12822;50.124;8.678;2023-02-10T15:30:47;53.17;;;28.38;;
24715;SDS011;12822;50.124;8.678;2023-02-10T15:33:21;55.05;;;27.20;;
24715;SDS011;12822;50.124;8.678;2023-02-10T15:38:28;51.50;;;26.40;;
24715;SDS011;12822;50.124;8.678;2023-02-10T15:40:56;51.70;;;27.98;;
24715;SDS011;12822;50.124;8.678;2023-02-10T15:45:49;46.15;;;27.52;;
24715;SDS011;12822;50.124;8.678;2023-02-10T15:48:18;49.00;;;27.83;;
24715;SDS011;12822;50.124;8.678;2023-02-10T15:50:45;54.03;;;27.77;;
24715;SDS011;12822;50.124;8.678;2023-02-10T15:53:12;46.92;;;26.05;;
24715;SDS011;12822;50.124;8.678;2023-02-10T15:55:43;53.55;;;28.55;;
24715;SDS011;12822;50.124;8.678;2023-02-10T15:58:10;51.65;;;28.60;;
24715;SDS011;12822;50.124;8.678;2023-02-10T16:00:37;50.40;;;27.45;;
24715;SDS011;12822;50.124;8.678;2023-02-10T16:03:04;51.40;;;27.88;;
24715;SDS011;12822;50.124;8.678;2023-02-10T16:05:33;55.85;;;28.55;;
24715;SDS011;12822;50.124;8.678;2023-02-10T16:08:15;55.85;;;28.13;;
24715;SDS011;12822;50.124;8.678;2023-02-10T16:10:43;55.30;;;27.27;;
24715;SDS011;12822;50.124;8.678;2023-02-10T16:13:11;54.08;;;28.65;;
24715;SDS011;12822;50.124;8.678;2023-02-10T16:15:38;59.15;;;29.83;;
24715;SDS011;12822;50.124;8.678;2023-02-10T16:18:04;60.80;;;29.98;;
24715;SDS011;12822;50.124;8.678;2023-02-10T16:20:30;59.13;;;30.02;;
24715;SDS011;12822;50.124;8.678;2023-02-10T16:22:57;55.20;;;30.05;;
24715;SDS011;12822;50.124;8.678;2023-02-10T16:25:24;61.97;;;31.88;;
24715;SDS011;12822;50.124;8.678;2023-02-10T16:27:50;60.78;;;31.60;;
24715;SDS011;12822;50.124;8.678;2023-02-10T16:30:18;66.68;;;31.40;;
24715;SDS011;12822;50.124;8.678;2023-02-10T16:32:45;57.75;;;30.92;;
24715;SDS011;12822;50.124;8.678;2023-02-10T16:35:11;62.92;;;32.55;;